Terminal Aerodrome Forecast
Issued by NWS Springfield, MO

Home | Current Version | Previous Version | Text Only | Print | Product List | Glossary On
Versions: 1 2 3 4 5 6 7 8 9 10 11 12 13 14 15 16 17
000
FTUS43 KSGF 200500
TAFSGF
TAF
KSGF 200520Z 2006/2106 15007KT P6SM FEW250
      TEMPO 2011/2013 4SM BR
     FM201500 23010KT P6SM SCT250
     FM210100 23005KT P6SM FEW050 SCT100 BKN250=

USA.gov is the U.S. government's official web portal to all federal, state and local government web resources and services.